createdAt,value
2023-03-22T00:04:38.141Z,6.95
2023-03-22T00:10:01.427Z,7.95
2023-03-22T00:15:22.657Z,6.30
2023-03-22T00:20:50.459Z,5.38
2023-03-22T00:26:11.490Z,12.27
2023-03-22T00:31:33.036Z,7.35
2023-03-22T00:36:53.692Z,5.35
2023-03-22T00:42:14.394Z,6.43
2023-03-22T00:47:35.011Z,6.65
2023-03-22T00:52:55.802Z,8.65
2023-03-22T00:58:16.486Z,4.60
2023-03-22T01:03:38.991Z,7.18
2023-03-22T01:09:00.363Z,6.68
2023-03-22T01:14:21.337Z,6.63
2023-03-22T01:19:42.451Z,6.85
2023-03-22T01:25:04.455Z,7.03
2023-03-22T01:30:25.446Z,7.32
2023-03-22T01:35:46.475Z,6.53
2023-03-22T01:41:07.768Z,8.80
2023-03-22T01:46:33.148Z,7.20
2023-03-22T01:51:56.121Z,7.40
2023-03-22T01:57:55.324Z,5.85
2023-03-22T02:03:41.377Z,6.50
2023-03-22T02:09:09.191Z,6.20
2023-03-22T02:14:40.620Z,8.65
2023-03-22T02:20:42.092Z,6.53
2023-03-22T02:26:05.745Z,8.95
2023-03-22T02:31:32.603Z,4.60
2023-03-22T02:37:14.684Z,8.88
2023-03-22T02:43:06.593Z,6.80
2023-03-22T02:48:27.531Z,5.80
2023-03-22T02:53:52.984Z,5.68
2023-03-22T02:59:14.012Z,5.00
2023-03-22T03:04:36.312Z,4.32
2023-03-22T03:09:57.068Z,4.95
2023-03-22T03:15:19.810Z,4.18
2023-03-22T03:21:02.723Z,4.65
2023-03-22T03:26:51.820Z,5.57
2023-03-22T03:32:18.745Z,9.73
2023-03-22T03:37:41.939Z,7.43
2023-03-22T03:43:04.268Z,5.95
2023-03-22T03:48:28.142Z,6.20
2023-03-22T03:53:48.767Z,5.40
2023-03-22T03:59:12.370Z,5.03
2023-03-22T04:04:34.829Z,7.03
2023-03-22T04:09:56.149Z,8.83
2023-03-22T04:15:21.328Z,6.10
2023-03-22T04:20:49.614Z,5.30
2023-03-22T04:26:11.308Z,6.75
2023-03-22T04:31:43.181Z,6.05
2023-03-22T04:37:16.094Z,5.65
2023-03-22T04:42:48.701Z,6.47
2023-03-22T04:48:21.585Z,8.50
2023-03-22T04:53:43.246Z,6.88
2023-03-22T04:59:05.484Z,6.50
2023-03-22T05:04:27.273Z,6.78
2023-03-22T05:09:55.278Z,6.93
2023-03-22T05:15:16.021Z,7.80
2023-03-22T05:20:37.814Z,9.90
2023-03-22T05:26:09.015Z,9.63
2023-03-22T05:31:30.548Z,11.13
2023-03-22T05:37:03.735Z,10.07
2023-03-22T05:42:36.623Z,8.85
2023-03-22T05:48:07.196Z,7.85
2023-03-22T05:53:29.894Z,8.38
2023-03-22T05:58:55.681Z,7.80
2023-03-22T06:04:18.747Z,9.43
2023-03-22T06:09:51.792Z,6.80
2023-03-22T06:15:16.409Z,8.35
2023-03-22T06:20:50.193Z,6.00
2023-03-22T06:26:14.567Z,5.38
2023-03-22T06:31:36.615Z,10.35
2023-03-22T06:36:59.905Z,4.72
2023-03-22T06:42:31.011Z,6.97
2023-03-22T06:48:01.330Z,7.72
2023-03-22T06:53:31.372Z,7.15
2023-03-22T06:58:52.045Z,3.63
2023-03-22T07:04:12.919Z,4.50
2023-03-22T07:09:34.097Z,9.00
2023-03-22T07:14:55.814Z,6.78
2023-03-22T07:20:27.824Z,6.88
2023-03-22T07:25:50.299Z,3.85
2023-03-22T07:31:21.977Z,4.80
2023-03-22T07:37:09.172Z,5.18
2023-03-22T07:42:31.348Z,3.00
2023-03-22T07:47:58.284Z,5.75
2023-03-22T07:53:40.645Z,5.13
2023-03-22T07:59:01.491Z,3.97
2023-03-22T08:04:22.800Z,3.95
2023-03-22T08:09:58.423Z,6.45
2023-03-22T08:15:22.494Z,3.10
2023-03-22T08:20:45.709Z,2.95
2023-03-22T08:26:12.051Z,3.00
2023-03-22T08:31:33.152Z,1.67
2023-03-22T08:36:54.420Z,3.80
2023-03-22T08:42:16.929Z,4.55
2023-03-22T08:47:37.884Z,0.93
2023-03-22T08:53:02.381Z,1.92
2023-03-22T08:58:29.024Z,3.65
2023-03-22T09:04:21.367Z,2.20
2023-03-22T09:09:42.806Z,1.63
2023-03-22T09:15:06.305Z,1.75
2023-03-22T09:20:32.278Z,0.82
2023-03-22T09:25:53.312Z,0.93
2023-03-22T09:31:20.441Z,1.23
2023-03-22T09:36:47.841Z,2.30
2023-03-22T09:42:33.226Z,3.08
2023-03-22T09:47:57.216Z,1.38
2023-03-22T09:53:18.398Z,1.52
2023-03-22T09:59:13.923Z,1.67
2023-03-22T10:05:12.410Z,2.05
2023-03-22T10:10:34.609Z,0.85
2023-03-22T10:16:02.717Z,2.15
2023-03-22T10:21:24.146Z,1.67
2023-03-22T10:26:46.862Z,0.80
2023-03-22T10:32:15.340Z,1.20
2023-03-22T10:37:37.157Z,3.20
2023-03-22T10:43:04.270Z,2.27
2023-03-22T10:48:33.657Z,0.73
2023-03-22T10:53:55.593Z,0.77
2023-03-22T10:59:42.148Z,1.10
2023-03-22T11:05:04.946Z,1.10
2023-03-22T11:10:32.805Z,2.97
2023-03-22T11:15:58.978Z,1.60
2023-03-22T11:21:21.254Z,2.00
2023-03-22T11:26:42.711Z,1.30
2023-03-22T11:32:03.839Z,2.50
2023-03-22T11:42:45.851Z,1.98
2023-03-22T11:48:15.498Z,1.20
2023-03-22T11:53:39.126Z,1.35
2023-03-22T11:59:07.698Z,0.82
2023-03-22T12:04:29.952Z,2.90
2023-03-22T12:09:58.428Z,2.80
2023-03-22T12:15:48.716Z,1.95
2023-03-22T12:21:10.074Z,2.75
2023-03-22T12:26:31.047Z,1.42
2023-03-22T12:32:15.923Z,2.73
2023-03-22T12:37:37.056Z,2.55
2023-03-22T12:43:21.726Z,2.45
2023-03-22T12:49:03.069Z,3.58
2023-03-22T12:54:24.426Z,1.52
2023-03-22T12:59:47.200Z,1.58
2023-03-22T13:05:10.534Z,1.63
2023-03-22T13:10:31.933Z,1.40
2023-03-22T13:16:01.850Z,1.23
2023-03-22T13:21:27.950Z,3.08
2023-03-22T13:26:53.390Z,2.10
2023-03-22T13:32:30.563Z,2.28
2023-03-22T13:37:51.410Z,3.83
2023-03-22T13:43:32.713Z,3.90
2023-03-22T13:49:14.474Z,2.40
2023-03-22T13:54:40.454Z,2.47
2023-03-22T14:00:11.499Z,2.45
2023-03-22T14:05:36.482Z,1.50
2023-03-22T14:11:01.626Z,3.67
2023-03-22T14:16:54.672Z,2.05
